Time;durP1;ratioP1;P1;durP2;ratioP2;P2;SDS_P1;SDS_P2;PMS_P1;PMS_P2;Temp;Humidity;BMP_temperature;BMP_pressure;BME280_temperature;BME280_humidity;BME280_pressure;Samples;Min_cycle;Max_cycle;Signal;HPM_P1;HPM_P2
2021/08/13 00:00:55;;;;;;;16.42;11.45;;;19.90;86.60;;;;;;5050910;28;20060;-75
2021/08/13 00:03:21;;;;;;;17.85;10.70;;;19.90;86.60;;;;;;5002621;28;20112;-75
2021/08/13 00:05:47;;;;;;;17.08;11.18;;;19.90;86.80;;;;;;5036732;28;20041;-75
2021/08/13 00:08:13;;;;;;;19.75;11.93;;;19.90;86.90;;;;;;5035064;28;20025;-75
2021/08/13 00:10:39;;;;;;;15.65;10.90;;;19.90;87.00;;;;;;5039607;28;20021;-75
2021/08/13 00:13:05;;;;;;;16.35;11.05;;;19.90;87.00;;;;;;4998480;28;20080;-75
2021/08/13 00:15:30;;;;;;;13.98;10.90;;;19.90;87.00;;;;;;5046793;28;20053;-75
2021/08/13 00:17:56;;;;;;;14.63;10.88;;;19.80;87.00;;;;;;5051407;28;20076;-75
2021/08/13 00:20:22;;;;;;;18.73;11.38;;;19.80;87.10;;;;;;5033574;28;20113;-74
2021/08/13 00:22:49;;;;;;;16.08;11.00;;;19.80;87.20;;;;;;5051772;28;20108;-75
2021/08/13 00:25:15;;;;;;;17.15;11.55;;;19.80;87.20;;;;;;5051646;28;20389;-87
2021/08/13 00:27:40;;;;;;;14.48;10.75;;;19.80;87.10;;;;;;5051445;28;20033;-87
2021/08/13 00:30:07;;;;;;;16.88;12.07;;;19.70;87.30;;;;;;5034496;28;20525;-86
2021/08/13 00:32:32;;;;;;;17.73;11.77;;;19.70;87.40;;;;;;5052459;28;20043;-87
2021/08/13 00:34:58;;;;;;;15.07;12.15;;;19.70;87.40;;;;;;5051329;28;20477;-88
2021/08/13 00:37:24;;;;;;;17.25;11.85;;;19.70;87.50;;;;;;5051364;28;20066;-87
2021/08/13 00:39:49;;;;;;;16.33;12.15;;;19.60;87.50;;;;;;5051627;28;20060;-88
2021/08/13 00:42:15;;;;;;;20.75;12.25;;;19.60;87.60;;;;;;5051213;28;20024;-87
2021/08/13 00:44:41;;;;;;;15.07;12.00;;;19.50;87.80;;;;;;5052375;28;20116;-88
2021/08/13 00:47:06;;;;;;;17.45;13.25;;;19.50;87.90;;;;;;5052379;28;20059;-88
2021/08/13 00:49:32;;;;;;;16.17;10.95;;;19.50;87.90;;;;;;5052314;28;20017;-88
2021/08/13 00:51:58;;;;;;;19.67;12.45;;;19.50;88.00;;;;;;5052139;28;20029;-88
2021/08/13 00:54:24;;;;;;;16.95;11.15;;;19.50;88.70;;;;;;5051477;28;20029;-88
2021/08/13 00:56:50;;;;;;;16.58;11.63;;;19.50;88.00;;;;;;5051094;28;20033;-87
2021/08/13 00:59:17;;;;;;;14.60;11.38;;;19.50;87.90;;;;;;5052778;28;20385;-87
2021/08/13 01:01:43;;;;;;;15.98;10.75;;;19.50;88.00;;;;;;5034705;28;20033;-88
2021/08/13 01:04:09;;;;;;;12.77;10.60;;;19.50;87.90;;;;;;5054271;28;20107;-86
2021/08/13 01:06:35;;;;;;;15.80;10.43;;;19.50;87.90;;;;;;5056536;28;20120;-88
2021/08/13 01:09:01;;;;;;;11.13;9.88;;;19.50;87.90;;;;;;5056646;28;20029;-88
2021/08/13 01:11:48;;;;;;;14.48;10.23;;;19.40;87.80;;;;;;5054768;28;20036;-75
2021/08/13 01:14:36;;;;;;;13.02;9.05;;;19.40;87.90;;;;;;5061100;28;20075;-74
2021/08/13 01:17:03;;;;;;;13.15;9.57;;;19.40;87.70;;;;;;5056327;28;20063;-75
2021/08/13 01:19:36;;;;;;;14.80;10.00;;;19.30;87.70;;;;;;5074529;28;20034;-75
2021/08/13 01:22:13;;;;;;;12.63;9.15;;;19.30;87.90;;;;;;5074252;28;20029;-75
2021/08/13 01:24:46;;;;;;;14.88;8.48;;;19.30;88.00;;;;;;5075031;28;20047;-74
2021/08/13 01:27:16;;;;;;;11.80;9.57;;;19.30;88.10;;;;;;5074093;28;20028;-74
2021/08/13 01:29:49;;;;;;;14.82;9.70;;;19.20;88.00;;;;;;5075021;28;20024;-74
2021/08/13 01:32:17;;;;;;;17.17;9.93;;;19.20;88.20;;;;;;5056229;28;20040;-75
2021/08/13 01:34:46;;;;;;;10.68;8.77;;;19.20;88.40;;;;;;5074484;28;20021;-74
2021/08/13 01:37:13;;;;;;;12.80;9.68;;;19.20;88.60;;;;;;5073890;28;20107;-74
2021/08/13 01:39:40;;;;;;;12.40;9.63;;;19.20;88.80;;;;;;5056901;28;20041;-76
2021/08/13 01:42:07;;;;;;;11.05;9.88;;;19.20;88.90;;;;;;5055791;28;20029;-76
2021/08/13 01:44:34;;;;;;;14.18;9.63;;;19.30;89.10;;;;;;5074746;28;20094;-76
2021/08/13 01:47:01;;;;;;;16.80;10.88;;;19.30;89.20;;;;;;5073769;28;20492;-76
2021/08/13 01:49:30;;;;;;;17.65;11.10;;;19.30;89.30;;;;;;5056714;28;20377;-76
2021/08/13 01:51:57;;;;;;;13.75;9.85;;;19.40;89.50;;;;;;5071169;28;20029;-76
2021/08/13 01:54:24;;;;;;;16.55;11.20;;;19.40;89.50;;;;;;5074631;28;20090;-77
2021/08/13 01:56:50;;;;;;;17.90;10.80;;;19.40;89.60;;;;;;5074396;28;20097;-77
2021/08/13 01:59:16;;;;;;;15.60;11.60;;;19.50;89.70;;;;;;5056675;28;20027;-77
2021/08/13 02:01:42;;;;;;;19.30;12.23;;;19.50;89.70;;;;;;5055884;28;20365;-76
2021/08/13 02:04:08;;;;;;;27.45;14.30;;;19.50;89.70;;;;;;5074163;28;20082;-76
2021/08/13 02:06:35;;;;;;;26.80;14.52;;;19.50;89.70;;;;;;5038559;28;20058;-75
2021/08/13 02:09:02;;;;;;;21.05;13.77;;;19.50;89.80;;;;;;5074010;28;20028;-75
2021/08/13 02:11:29;;;;;;;17.63;13.30;;;19.50;89.70;;;;;;5073860;28;20025;-74
2021/08/13 02:13:55;;;;;;;20.40;14.50;;;19.50;89.60;;;;;;5073745;28;20050;-75
2021/08/13 02:16:26;;;;;;;21.63;12.82;;;19.50;90.10;;;;;;5019009;28;20436;-74
2021/08/13 02:19:22;;;;;;;20.20;12.98;;;19.50;89.70;;;;;;5054073;28;20025;-74
2021/08/13 02:21:50;;;;;;;27.75;14.65;;;19.40;89.60;;;;;;5072965;28;20044;-75
2021/08/13 02:24:19;;;;;;;22.15;14.55;;;19.40;89.60;;;;;;5039397;28;20029;-75
2021/08/13 02:26:48;;;;;;;22.52;14.95;;;19.40;89.70;;;;;;5056027;28;20153;-74
2021/08/13 02:29:14;;;;;;;23.58;14.73;;;19.30;89.60;;;;;;5073605;28;20044;-74
2021/08/13 02:31:40;;;;;;;17.65;14.65;;;19.30;89.60;;;;;;5073464;28;20600;-74
2021/08/13 02:34:05;;;;;;;22.38;14.05;;;19.30;89.60;;;;;;5055967;28;20111;-76
2021/08/13 02:36:42;;;;;;;20.02;14.30;;;19.30;89.60;;;;;;5055435;28;20480;-76
2021/08/13 02:39:32;;;;;;;23.90;14.70;;;19.30;89.60;;;;;;5054973;28;20111;-76
2021/08/13 02:42:01;;;;;;;21.33;13.98;;;19.30;89.60;;;;;;5070793;28;20033;-76
2021/08/13 02:44:32;;;;;;;17.00;12.95;;;19.30;89.60;;;;;;5055446;28;20032;-76
2021/08/13 02:47:03;;;;;;;21.30;14.70;;;19.30;89.50;;;;;;5073683;28;20028;-76
2021/08/13 02:49:29;;;;;;;19.05;14.82;;;19.30;89.50;;;;;;5055643;28;20389;-76
2021/08/13 02:52:04;;;;;;;18.02;13.18;;;19.20;89.40;;;;;;5073650;28;20027;-88
2021/08/13 02:54:33;;;;;;;21.00;14.27;;;19.20;89.60;;;;;;5074561;28;20651;-88
2021/08/13 02:57:01;;;;;;;23.67;16.63;;;19.20;89.60;;;;;;5074441;28;20390;-87
2021/08/13 02:59:30;;;;;;;20.67;16.75;;;19.20;89.60;;;;;;5074355;28;20020;-87
2021/08/13 03:01:58;;;;;;;19.60;15.65;;;19.10;89.60;;;;;;5056633;28;20024;-88
2021/08/13 03:04:27;;;;;;;19.00;15.00;;;19.10;89.70;;;;;;5056504;28;20025;-87
2021/08/13 03:06:54;;;;;;;20.70;14.40;;;19.10;89.90;;;;;;5074265;28;20059;-88
2021/08/13 03:09:20;;;;;;;20.00;16.77;;;19.10;89.70;;;;;;5074400;28;20020;-88
2021/08/13 03:11:47;;;;;;;22.42;16.73;;;19.00;89.70;;;;;;5056184;28;20036;-77
2021/08/13 03:14:13;;;;;;;24.55;16.30;;;18.90;90.20;;;;;;5073065;28;20052;-76
2021/08/13 03:16:41;;;;;;;21.77;17.05;;;19.00;90.00;;;;;;5073178;28;20108;-76
2021/08/13 03:19:08;;;;;;;25.98;16.52;;;19.00;90.00;;;;;;5055008;28;20032;-76
2021/08/13 03:21:34;;;;;;;19.10;15.57;;;19.00;90.00;;;;;;5072368;28;20071;-76
2021/08/13 03:24:01;;;;;;;24.70;18.10;;;19.00;90.00;;;;;;5072546;28;20429;-76
2021/08/13 03:26:27;;;;;;;24.63;18.13;;;18.90;90.00;;;;;;5071800;28;20024;-76
2021/08/13 03:28:52;;;;;;;20.75;17.33;;;18.90;90.10;;;;;;5054642;28;20024;-76
2021/08/13 03:31:37;;;;;;;23.80;17.55;;;18.80;90.00;;;;;;5072513;28;20213;-76
2021/08/13 03:34:04;;;;;;;22.90;17.50;;;18.80;90.10;;;;;;5054234;28;20044;-76
2021/08/13 03:36:30;;;;;;;23.75;18.08;;;18.80;90.00;;;;;;5054619;28;20500;-76
2021/08/13 03:38:56;;;;;;;24.13;19.13;;;18.70;90.00;;;;;;5054223;28;20032;-76
2021/08/13 03:41:21;;;;;;;25.65;19.33;;;18.70;90.10;;;;;;5054664;28;20028;-76
2021/08/13 03:43:47;;;;;;;23.30;17.58;;;18.70;90.10;;;;;;5070557;28;20097;-76
2021/08/13 03:46:13;;;;;;;21.58;16.08;;;18.70;90.10;;;;;;5054468;28;20029;-76
2021/08/13 03:48:38;;;;;;;20.90;16.77;;;18.70;90.10;;;;;;5072566;28;20541;-76
2021/08/13 03:51:04;;;;;;;19.92;15.63;;;18.60;90.10;;;;;;5072661;28;20397;-76
2021/08/13 03:53:30;;;;;;;19.85;15.57;;;18.60;90.20;;;;;;5071751;28;20048;-76
2021/08/13 03:55:55;;;;;;;22.42;17.40;;;18.60;90.20;;;;;;5054536;28;20486;-76
2021/08/13 03:58:21;;;;;;;22.15;17.15;;;18.60;90.20;;;;;;5053761;28;20032;-76
2021/08/13 04:00:47;;;;;;;19.58;16.38;;;18.60;90.20;;;;;;5054191;28;20134;-76
2021/08/13 04:03:12;;;;;;;19.33;15.55;;;18.50;90.20;;;;;;5071924;28;20098;-76
2021/08/13 04:05:38;;;;;;;21.80;17.50;;;18.50;90.20;;;;;;5054295;28;20039;-76
2021/08/13 04:08:04;;;;;;;22.30;17.30;;;18.50;90.20;;;;;;5072336;28;20044;-76
2021/08/13 04:10:29;;;;;;;23.42;17.50;;;18.50;90.20;;;;;;5054136;28;20489;-76
2021/08/13 04:12:55;;;;;;;23.42;16.88;;;18.50;90.20;;;;;;5071496;28;20021;-76
2021/08/13 04:15:21;;;;;;;25.85;18.05;;;18.50;90.20;;;;;;5071794;28;20178;-76
2021/08/13 04:17:48;;;;;;;25.42;18.60;;;18.50;90.50;;;;;;5070785;28;20033;-76
2021/08/13 04:20:14;;;;;;;25.83;18.63;;;18.40;90.30;;;;;;5062187;28;20094;-76
2021/08/13 04:22:39;;;;;;;24.13;17.75;;;18.50;90.40;;;;;;5071938;28;20111;-76
2021/08/13 04:25:05;;;;;;;22.73;16.83;;;18.50;90.40;;;;;;5054167;28;20112;-76
2021/08/13 04:27:31;;;;;;;21.42;17.63;;;18.40;90.40;;;;;;5033895;28;20065;-76
2021/08/13 04:29:57;;;;;;;26.25;19.13;;;18.40;90.40;;;;;;5065872;28;20035;-76
2021/08/13 04:32:22;;;;;;;25.80;19.40;;;18.40;90.40;;;;;;5071680;28;20020;-76
2021/08/13 04:34:48;;;;;;;22.52;17.80;;;18.40;90.50;;;;;;5033633;28;20473;-74
2021/08/13 04:37:13;;;;;;;22.40;17.30;;;18.40;90.50;;;;;;5049595;28;20477;-74
2021/08/13 04:39:39;;;;;;;19.45;16.13;;;18.40;90.50;;;;;;5057416;28;20040;-75
2021/08/13 04:42:05;;;;;;;23.25;16.90;;;18.40;90.60;;;;;;5075303;28;20119;-75
2021/08/13 04:44:30;;;;;;;20.10;16.30;;;18.40;90.60;;;;;;5057500;28;20056;-75
2021/08/13 04:46:56;;;;;;;20.60;16.42;;;18.50;90.60;;;;;;5057588;28;20029;-74
2021/08/13 04:49:22;;;;;;;20.20;15.85;;;18.60;90.60;;;;;;5075389;28;20032;-74
2021/08/13 04:51:48;;;;;;;22.52;18.27;;;18.50;90.60;;;;;;5057331;28;20035;-74
2021/08/13 04:54:13;;;;;;;26.23;17.67;;;18.70;90.60;;;;;;5057157;28;20060;-74
2021/08/13 04:56:39;;;;;;;26.17;18.23;;;18.60;90.80;;;;;;5057564;28;20116;-75
2021/08/13 04:59:05;;;;;;;24.20;18.88;;;18.70;90.60;;;;;;5075425;28;20173;-74
2021/08/13 05:01:31;;;;;;;25.98;18.63;;;18.80;90.60;;;;;;5037559;28;20445;-76
2021/08/13 05:03:56;;;;;;;27.80;19.27;;;18.80;90.60;;;;;;5024168;28;20037;-76
2021/08/13 05:06:22;;;;;;;26.60;18.65;;;18.90;90.60;;;;;;5055810;28;20078;-76
2021/08/13 05:08:47;;;;;;;27.05;19.75;;;18.90;90.60;;;;;;5074596;28;20086;-76
2021/08/13 05:11:13;;;;;;;27.88;20.27;;;19.00;90.60;;;;;;5075050;28;20465;-76
2021/08/13 05:13:39;;;;;;;28.88;21.60;;;18.90;90.80;;;;;;5040625;28;20032;-76
2021/08/13 05:16:04;;;;;;;27.70;21.55;;;19.00;90.60;;;;;;5056870;28;20072;-76
2021/08/13 05:18:30;;;;;;;30.15;22.27;;;19.00;90.50;;;;;;5073669;28;20107;-76
2021/08/13 05:20:59;;;;;;;26.75;18.90;;;19.00;90.50;;;;;;5063021;28;20021;-88
2021/08/13 05:23:24;;;;;;;25.42;20.63;;;19.00;90.60;;;;;;5076186;28;20029;-87
2021/08/13 05:25:50;;;;;;;29.92;20.90;;;19.10;90.60;;;;;;5058376;28;20070;-87
2021/08/13 05:28:16;;;;;;;29.58;22.40;;;19.10;90.90;;;;;;5058352;28;20025;-87
2021/08/13 05:30:42;;;;;;;24.27;19.02;;;19.20;90.60;;;;;;5076131;28;20021;-87
2021/08/13 05:33:08;;;;;;;25.33;18.63;;;19.20;90.50;;;;;;5075604;28;20029;-78
2021/08/13 05:35:36;;;;;;;28.58;19.13;;;19.30;90.50;;;;;;5056696;28;20078;-76
2021/08/13 05:38:03;;;;;;;21.83;18.23;;;19.30;90.40;;;;;;5058154;28;20504;-77
2021/08/13 05:40:29;;;;;;;28.60;20.75;;;19.40;90.40;;;;;;5074794;28;20051;-75
2021/08/13 05:42:59;;;;;;;39.58;27.67;;;19.40;90.30;;;;;;5074381;28;20036;-76
2021/08/13 05:45:25;;;;;;;47.50;30.52;;;19.50;90.40;;;;;;5055793;28;20032;-76
2021/08/13 05:47:51;;;;;;;37.83;28.08;;;19.50;90.40;;;;;;5074865;28;20033;-76
2021/08/13 05:50:17;;;;;;;41.53;28.45;;;19.60;90.50;;;;;;5055011;28;20507;-76
2021/08/13 05:52:46;;;;;;;36.53;25.80;;;19.60;90.50;;;;;;5074685;28;20021;-76
2021/08/13 05:55:12;;;;;;;33.65;25.02;;;19.60;90.60;;;;;;5036169;28;20075;-75
2021/08/13 05:57:38;;;;;;;31.77;24.75;;;19.70;90.60;;;;;;5071686;28;20070;-76
2021/08/13 06:00:05;;;;;;;35.53;26.15;;;19.70;90.50;;;;;;5074187;28;20063;-76
2021/08/13 06:02:30;;;;;;;36.22;27.27;;;19.70;90.40;;;;;;5074227;28;20029;-75
2021/08/13 06:04:57;;;;;;;35.13;26.70;;;19.80;90.40;;;;;;5055596;28;20043;-75
2021/08/13 06:07:23;;;;;;;40.58;27.42;;;19.80;90.40;;;;;;5055916;28;20031;-75
2021/08/13 06:09:48;;;;;;;36.92;25.17;;;19.80;90.40;;;;;;5072265;28;20031;-75
2021/08/13 06:12:14;;;;;;;36.35;25.63;;;19.90;90.40;;;;;;5055909;28;20028;-75
2021/08/13 06:14:40;;;;;;;30.85;22.90;;;19.90;90.50;;;;;;5039310;28;20029;-75
2021/08/13 06:17:06;;;;;;;32.42;23.08;;;19.90;90.40;;;;;;5055068;28;20053;-74
2021/08/13 06:19:32;;;;;;;30.58;22.27;;;19.90;90.20;;;;;;5056474;28;20028;-81
2021/08/13 06:21:59;;;;;;;30.33;19.80;;;20.00;90.20;;;;;;5040508;28;20383;-82
2021/08/13 06:24:29;;;;;;;27.58;21.45;;;20.00;90.00;;;;;;5074179;28;20024;-75
2021/08/13 06:26:54;;;;;;;28.02;21.20;;;20.00;89.90;;;;;;5073904;28;20032;-80
2021/08/13 06:29:21;;;;;;;35.63;21.92;;;20.10;89.40;;;;;;5056368;28;20435;-80
2021/08/13 06:31:48;;;;;;;31.02;19.83;;;20.10;89.10;;;;;;5074184;28;20028;-80
2021/08/13 06:34:17;;;;;;;24.23;19.30;;;20.10;88.80;;;;;;5074905;28;20023;-80
2021/08/13 06:36:45;;;;;;;22.67;18.20;;;20.10;88.70;;;;;;5057812;28;20108;-80
2021/08/13 06:39:11;;;;;;;28.23;19.90;;;20.20;88.60;;;;;;5056345;28;20141;-80
2021/08/13 06:41:37;;;;;;;29.73;20.95;;;20.20;88.30;;;;;;5055517;28;20046;-80
2021/08/13 06:44:03;;;;;;;27.00;20.10;;;20.20;88.10;;;;;;5074281;28;20026;-80
2021/08/13 06:46:29;;;;;;;23.70;18.80;;;20.30;88.00;;;;;;5074374;28;20603;-80
2021/08/13 06:48:54;;;;;;;25.05;19.55;;;20.30;87.80;;;;;;5056251;28;20054;-80
2021/08/13 06:51:20;;;;;;;26.08;18.92;;;20.40;87.60;;;;;;5074032;28;20025;-80
2021/08/13 06:53:46;;;;;;;25.20;18.48;;;20.50;87.30;;;;;;5074262;28;20038;-80
2021/08/13 06:56:12;;;;;;;23.08;18.60;;;20.60;86.60;;;;;;5074328;28;20491;-80
2021/08/13 06:58:37;;;;;;;19.40;15.85;;;20.60;86.20;;;;;;5074129;28;20059;-80
2021/08/13 07:01:03;;;;;;;23.52;17.65;;;20.70;85.90;;;;;;5073398;28;20070;-80
2021/08/13 07:03:29;;;;;;;24.52;17.65;;;20.70;85.50;;;;;;5074059;28;20390;-80
2021/08/13 07:05:54;;;;;;;22.30;17.42;;;20.80;85.20;;;;;;5055817;28;20477;-80
2021/08/13 07:08:20;;;;;;;21.95;16.73;;;20.90;84.90;;;;;;5074042;28;20029;-80
2021/08/13 07:10:46;;;;;;;18.17;14.38;;;21.00;84.50;;;;;;5039745;28;20021;-86
2021/08/13 07:13:11;;;;;;;22.17;14.77;;;21.00;84.20;;;;;;5056039;28;20021;-84
2021/08/13 07:15:37;;;;;;;22.50;15.27;;;21.20;83.80;;;;;;5039421;28;20056;-80
2021/08/13 07:18:03;;;;;;;21.77;15.93;;;21.20;83.70;;;;;;5073711;28;20036;-80
2021/08/13 07:20:28;;;;;;;23.52;16.52;;;21.30;83.40;;;;;;5073880;28;20104;-80
2021/08/13 07:22:54;;;;;;;22.40;16.60;;;21.40;82.60;;;;;;5074046;28;20029;-80
2021/08/13 07:25:20;;;;;;;20.13;15.63;;;21.40;82.10;;;;;;5055829;28;20094;-80
2021/08/13 07:27:46;;;;;;;18.45;15.18;;;21.40;81.90;;;;;;5055591;28;20028;-75
2021/08/13 07:30:12;;;;;;;20.02;15.52;;;21.40;81.70;;;;;;5055083;28;20512;-75
2021/08/13 07:32:38;;;;;;;17.17;13.65;;;21.40;81.60;;;;;;5038183;28;20033;-75
2021/08/13 07:35:03;;;;;;;18.50;13.57;;;21.40;81.40;;;;;;5056070;28;20099;-89
2021/08/13 07:37:29;;;;;;;23.55;15.07;;;21.40;81.30;;;;;;5073926;28;20039;-88
2021/08/13 07:39:55;;;;;;;18.38;14.23;;;21.40;81.50;;;;;;5056189;28;20040;-88
2021/08/13 07:42:25;;;;;;;22.60;14.70;;;21.30;81.70;;;;;;5055208;28;20111;-75
2021/08/13 07:44:50;;;;;;;18.80;14.43;;;21.30;82.00;;;;;;5055176;28;20027;-75
2021/08/13 07:47:16;;;;;;;16.75;13.85;;;21.40;81.70;;;;;;5054810;28;20068;-75
2021/08/13 07:49:42;;;;;;;18.42;13.52;;;21.40;81.50;;;;;;5038093;28;20040;-75
2021/08/13 07:52:08;;;;;;;17.90;12.57;;;21.50;81.90;;;;;;5037808;28;20028;-76
2021/08/13 07:54:33;;;;;;;15.30;11.75;;;21.50;80.90;;;;;;5054674;28;20031;-75
2021/08/13 07:56:59;;;;;;;20.08;11.30;;;21.60;80.70;;;;;;5072731;28;20107;-89
2021/08/13 07:59:25;;;;;;;15.00;11.48;;;21.70;80.30;;;;;;5073646;28;20217;-88
2021/08/13 08:01:50;;;;;;;12.45;9.35;;;21.70;80.10;;;;;;5073599;28;20035;-88
2021/08/13 08:04:16;;;;;;;15.30;10.25;;;21.70;79.90;;;;;;5055486;28;20550;-88
2021/08/13 08:06:41;;;;;;;13.85;9.80;;;21.70;79.50;;;;;;5038735;28;20033;-89
2021/08/13 08:09:07;;;;;;;16.80;9.95;;;21.90;79.00;;;;;;5055549;28;20020;-88
2021/08/13 08:11:33;;;;;;;13.30;10.18;;;22.00;78.30;;;;;;5073282;28;20055;-88
2021/08/13 08:13:58;;;;;;;13.35;10.10;;;22.10;78.10;;;;;;5055355;28;20031;-88
2021/08/13 08:16:24;;;;;;;22.25;10.35;;;22.30;78.10;;;;;;5035370;28;20057;-88
2021/08/13 08:18:49;;;;;;;11.32;8.85;;;22.30;77.60;;;;;;5053321;28;20032;-88
2021/08/13 08:21:15;;;;;;;12.43;8.77;;;22.40;76.00;;;;;;5053350;28;20040;-88
2021/08/13 08:23:41;;;;;;;9.32;8.02;;;22.50;77.00;;;;;;5052154;28;20033;-88
2021/08/13 08:26:06;;;;;;;12.65;7.65;;;22.50;77.60;;;;;;5053140;28;20500;-87
2021/08/13 08:28:32;;;;;;;11.15;7.25;;;22.60;77.20;;;;;;5035379;28;20025;-88
2021/08/13 08:30:57;;;;;;;12.05;7.43;;;22.60;76.90;;;;;;5052093;28;20033;-88
2021/08/13 08:33:23;;;;;;;9.27;6.63;;;22.60;76.80;;;;;;5052004;28;20025;-89
2021/08/13 08:35:49;;;;;;;9.60;6.03;;;22.60;76.90;;;;;;5053300;28;20025;-88
2021/08/13 08:38:15;;;;;;;13.05;6.63;;;22.60;76.90;;;;;;5052787;28;20033;-88
2021/08/13 08:40:42;;;;;;;10.13;6.82;;;22.60;76.90;;;;;;5052930;28;20056;-88
2021/08/13 08:43:09;;;;;;;9.82;7.22;;;22.70;76.90;;;;;;5052876;28;20106;-88
2021/08/13 08:45:37;;;;;;;8.52;6.55;;;22.80;76.30;;;;;;5035081;28;20425;-88
2021/08/13 08:48:06;;;;;;;8.52;5.90;;;22.90;75.40;;;;;;5051419;28;20586;-87
2021/08/13 08:50:34;;;;;;;9.75;5.65;;;22.90;75.70;;;;;;5051176;28;20032;-87
2021/08/13 08:53:04;;;;;;;9.32;5.32;;;23.10;75.30;;;;;;5052067;28;20479;-86
2021/08/13 08:55:32;;;;;;;6.57;4.30;;;23.30;74.60;;;;;;5052265;28;20029;-87
2021/08/13 08:57:59;;;;;;;5.03;4.18;;;23.50;73.30;;;;;;5050601;28;20036;-87
2021/08/13 09:00:24;;;;;;;7.90;4.82;;;23.60;72.30;;;;;;5051540;28;20041;-87
2021/08/13 09:02:53;;;;;;;8.60;5.00;;;23.70;72.30;;;;;;5050815;28;20546;-87
2021/08/13 09:05:18;;;;;;;6.55;4.70;;;23.70;71.60;;;;;;5051767;28;20116;-86
2021/08/13 09:07:44;;;;;;;6.60;4.28;;;23.80;72.20;;;;;;5050496;28;20116;-87
2021/08/13 09:10:14;;;;;;;6.85;4.70;;;24.00;72.70;;;;;;5047548;28;20419;-86
2021/08/13 09:12:41;;;;;;;6.10;3.83;;;24.10;71.90;;;;;;5050394;28;20132;-86
2021/08/13 09:15:25;;;;;;;8.57;4.25;;;24.30;71.30;;;;;;5054433;28;20060;-87
2021/08/13 09:18:17;;;;;;;5.93;4.30;;;24.50;70.50;;;;;;5068185;28;20450;-87
2021/08/13 09:21:20;;;;;;;9.15;5.53;;;24.60;69.90;;;;;;5054040;28;20052;-87
2021/08/13 09:23:47;;;;;;;6.57;4.82;;;24.40;69.70;;;;;;5046608;28;20116;-87
2021/08/13 09:26:13;;;;;;;8.77;5.18;;;24.20;70.40;;;;;;5075245;28;20032;-89
2021/08/13 09:28:41;;;;;;;5.70;4.80;;;24.10;71.40;;;;;;5057816;28;20678;-76
2021/08/13 09:31:19;;;;;;;7.72;5.50;;;24.20;71.60;;;;;;5054718;28;20021;-76
2021/08/13 09:33:48;;;;;;;10.40;5.00;;;24.30;71.50;;;;;;5073061;28;20107;-75
2021/08/13 09:36:15;;;;;;;7.57;5.10;;;24.40;70.70;;;;;;5055290;28;20033;-75
2021/08/13 09:38:41;;;;;;;9.10;4.88;;;24.40;70.60;;;;;;5040176;28;20397;-75
2021/08/13 09:41:11;;;;;;;7.95;4.43;;;24.50;70.80;;;;;;5056929;28;20082;-76
2021/08/13 09:44:25;;;;;;;9.05;4.80;;;24.50;71.10;;;;;;5056730;28;20582;-75
2021/08/13 09:47:08;;;;;;;6.38;4.93;;;24.70;70.40;;;;;;5011977;28;20086;-75
2021/08/13 09:49:36;;;;;;;7.35;4.72;;;24.90;69.90;;;;;;4996176;28;20029;-76
2021/08/13 09:52:15;;;;;;;;;;;24.90;69.10;;;;;;5041191;28;20044;-76
2021/08/13 09:54:42;;;;;;;6.45;4.25;;;25.00;69.40;;;;;;5042587;28;20372;-76
2021/08/13 09:57:08;;;;;;;5.97;4.60;;;24.90;68.60;;;;;;5056711;28;20087;-76
2021/08/13 09:59:36;;;;;;;5.90;4.10;;;25.00;68.90;;;;;;5056602;28;20032;-76
2021/08/13 10:02:14;;;;;;;6.68;3.97;;;25.20;69.30;;;;;;5056338;28;20050;-75
2021/08/13 10:04:41;;;;;;;5.68;3.85;;;25.40;68.70;;;;;;5055232;28;20033;-75
2021/08/13 10:07:07;;;;;;;6.53;3.60;;;25.40;68.10;;;;;;5074351;28;20028;-75
2021/08/13 10:09:33;;;;;;;3.95;2.92;;;25.40;67.80;;;;;;5053510;28;20024;-75
2021/08/13 10:11:59;;;;;;;4.68;3.00;;;25.50;67.60;;;;;;5020052;28;20397;-75
2021/08/13 10:14:37;;;;;;;3.90;3.40;;;25.50;67.10;;;;;;5077444;28;20024;-75
2021/08/13 10:17:17;;;;;;;4.65;3.10;;;25.50;67.00;;;;;;5055703;28;20475;-75
2021/08/13 10:19:51;;;;;;;3.92;2.70;;;25.40;67.00;;;;;;5074203;28;20039;-75
2021/08/13 10:22:19;;;;;;;3.65;2.53;;;25.30;67.70;;;;;;5073809;28;20508;-76
2021/08/13 10:24:46;;;;;;;5.15;2.70;;;25.40;66.70;;;;;;5074150;28;20543;-76
2021/08/13 10:27:14;;;;;;;3.40;2.10;;;25.50;65.80;;;;;;5074000;28;20078;-75
2021/08/13 10:29:45;;;;;;;3.13;2.35;;;25.50;66.80;;;;;;5055789;28;20037;-76
2021/08/13 10:32:12;;;;;;;3.20;2.40;;;25.60;67.40;;;;;;5023911;28;20038;-75
2021/08/13 10:34:38;;;;;;;2.88;2.35;;;25.60;66.20;;;;;;5073985;28;20052;-76
2021/08/13 10:37:10;;;;;;;3.90;2.10;;;25.60;66.30;;;;;;5039170;28;20056;-76
2021/08/13 10:39:36;;;;;;;3.30;2.00;;;25.50;66.30;;;;;;5056092;28;20402;-76
2021/08/13 10:42:05;;;;;;;2.60;2.30;;;25.60;66.10;;;;;;5056070;28;20036;-76
2021/08/13 10:44:38;;;;;;;3.30;2.50;;;25.60;66.10;;;;;;5055669;28;20036;-75
2021/08/13 10:47:15;;;;;;;3.80;2.28;;;25.70;67.00;;;;;;5055611;28;20119;-76
2021/08/13 10:49:45;;;;;;;3.55;2.35;;;25.80;66.20;;;;;;5055642;28;20555;-75
2021/08/13 10:52:11;;;;;;;2.85;2.10;;;25.80;65.20;;;;;;5055873;28;20145;-75
2021/08/13 10:54:40;;;;;;;6.60;2.20;;;26.00;65.80;;;;;;5035673;28;20064;-78
2021/08/13 10:57:07;;;;;;;2.90;2.20;;;26.10;65.40;;;;;;5053711;28;20028;-78
2021/08/13 10:59:39;;;;;;;3.20;1.60;;;26.20;64.20;;;;;;5055690;28;20433;-78
2021/08/13 11:02:12;;;;;;;3.92;2.28;;;26.40;64.30;;;;;;5073468;28;20024;-78
2021/08/13 11:04:57;;;;;;;2.50;1.95;;;26.40;63.60;;;;;;5073142;28;20021;-78
2021/08/13 11:08:00;;;;;;;2.58;2.30;;;26.40;63.70;;;;;;5073496;28;20115;-78
2021/08/13 11:10:49;;;;;;;3.47;2.30;;;26.30;62.70;;;;;;5055371;28;20024;-77
2021/08/13 11:13:19;;;;;;;2.90;2.22;;;26.10;62.40;;;;;;5073075;28;20032;-77
2021/08/13 11:15:45;;;;;;;2.63;2.00;;;26.00;63.30;;;;;;5072605;28;20044;-77
2021/08/13 11:18:35;;;;;;;4.68;2.00;;;25.90;63.20;;;;;;5072751;28;20031;-77
2021/08/13 11:21:03;;;;;;;2.42;2.08;;;25.90;62.80;;;;;;5072411;28;20037;-77
2021/08/13 11:23:29;;;;;;;4.15;1.90;;;25.90;63.50;;;;;;5038606;28;20473;-77
2021/08/13 11:25:56;;;;;;;2.72;2.00;;;25.80;62.60;;;;;;5038447;28;20044;-77
2021/08/13 11:28:24;;;;;;;3.15;2.13;;;25.80;61.60;;;;;;5072575;28;20016;-78
2021/08/13 11:30:51;;;;;;;3.80;2.20;;;25.80;63.30;;;;;;5055075;28;20024;-78
2021/08/13 11:33:25;;;;;;;4.18;2.20;;;25.80;61.80;;;;;;5072764;28;20552;-78
2021/08/13 11:35:52;;;;;;;2.90;1.88;;;25.90;61.90;;;;;;5072768;28;20040;-78
2021/08/13 11:38:50;;;;;;;3.55;1.92;;;25.90;62.80;;;;;;5055061;28;20046;-78
2021/08/13 11:41:22;;;;;;;4.95;2.55;;;26.00;61.00;;;;;;5028702;28;20053;-78
2021/08/13 11:43:57;;;;;;;4.10;2.20;;;26.00;61.90;;;;;;5055293;28;20086;-78
2021/08/13 11:46:27;;;;;;;3.58;2.22;;;26.00;62.20;;;;;;5055282;28;20082;-78
2021/08/13 11:49:01;;;;;;;2.47;2.20;;;26.00;62.60;;;;;;5054424;28;20039;-78
2021/08/13 11:51:28;;;;;;;5.20;2.83;;;26.10;61.90;;;;;;5054666;28;20120;-78
2021/08/13 11:53:55;;;;;;;3.75;2.50;;;26.10;61.80;;;;;;5072872;28;20036;-78
2021/08/13 11:56:24;;;;;;;2.63;2.40;;;26.10;61.60;;;;;;5073020;28;20086;-78
2021/08/13 11:59:03;;;;;;;3.75;1.95;;;26.10;60.70;;;;;;5054687;28;20115;-78
2021/08/13 12:01:30;;;;;;;4.80;2.38;;;26.00;60.00;;;;;;5054715;28;20636;-78
2021/08/13 12:03:55;;;;;;;5.40;2.50;;;26.00;59.30;;;;;;5055079;28;20025;-79
2021/08/13 12:06:21;;;;;;;3.03;2.33;;;26.00;61.00;;;;;;5054740;28;20481;-78
2021/08/13 12:08:48;;;;;;;6.90;2.65;;;26.00;61.80;;;;;;5055214;28;20032;-79
2021/08/13 12:11:23;;;;;;;3.60;2.55;;;25.90;59.90;;;;;;5059377;28;20029;-78
2021/08/13 12:13:49;;;;;;;4.78;3.05;;;25.80;56.70;;;;;;5053034;28;20029;-78
2021/08/13 12:16:19;;;;;;;7.55;3.35;;;25.70;57.50;;;;;;5053969;28;20060;-78
2021/08/13 12:18:45;;;;;;;5.68;3.15;;;25.70;57.60;;;;;;5072981;28;20036;-78
2021/08/13 12:21:11;;;;;;;5.95;3.70;;;25.70;56.30;;;;;;5055014;28;20058;-78
2021/08/13 12:23:37;;;;;;;4.03;3.13;;;25.70;56.20;;;;;;5055082;28;20490;-78
2021/08/13 12:26:03;;;;;;;5.85;3.70;;;25.80;56.20;;;;;;5054996;28;20377;-78
2021/08/13 12:28:32;;;;;;;4.68;3.35;;;25.80;55.40;;;;;;5054552;28;20025;-78
2021/08/13 12:31:08;;;;;;;13.98;3.70;;;25.80;56.10;;;;;;5072834;28;20033;-79
2021/08/13 12:33:34;;;;;;;8.55;3.80;;;25.80;55.60;;;;;;5034978;28;20095;-78
2021/08/13 12:36:00;;;;;;;6.40;3.47;;;25.80;54.20;;;;;;5054601;28;20044;-79
2021/08/13 12:38:33;;;;;;;8.25;3.97;;;25.80;55.10;;;;;;5054603;28;20040;-78